Appleton, New York
Current Conditions -  °F | °C
As of 2:53 PM on Sunday 21 Dec 2014 (Local Time) from KIAG Reporting Station
Broken Clouds Broken Clouds  
Wind Chill:   Ceiling: 2800
Heat Index:   Visibility: 10mi
Dew Point: -5°   Wind: 3mph
Humidity: 66%   Direction: 280°W
Pressure: 30.27"   Gusts: NA
Location:  43.33°N, 78.65°W
Report Text: KIAG 211953Z 28003KT 10SM BKN028 BKN070 01/M05 A3027 RMK AO2 SLP267 T00061050
Loading
Personal Weather Stations






























Interactive Weather Map New forecast layout! Learn more

10-Day Weather Forecast

Advertisements
Track Severe Weather on mobile